createdAt,value
2018-04-18T00:02:10.753Z,8.40
2018-04-18T00:04:38.203Z,8.40
2018-04-18T00:07:05.917Z,8.50
2018-04-18T00:09:34.760Z,8.60
2018-04-18T00:12:02.225Z,8.50
2018-04-18T00:14:29.776Z,8.50
2018-04-18T00:16:57.230Z,8.50
2018-04-18T00:19:24.684Z,8.50
2018-04-18T00:21:52.156Z,8.50
2018-04-18T00:24:20.504Z,8.40
2018-04-18T00:26:48.010Z,8.40
2018-04-18T00:29:15.424Z,8.40
2018-04-18T00:31:42.874Z,8.40
2018-04-18T00:34:10.327Z,8.40
2018-04-18T00:36:37.782Z,8.40
2018-04-18T00:39:05.556Z,8.30
2018-04-18T00:41:33.032Z,8.20
2018-04-18T00:44:00.572Z,8.10
2018-04-18T00:46:28.030Z,8.10
2018-04-18T00:48:56.035Z,8.10
2018-04-18T00:51:23.921Z,8.20
2018-04-18T00:53:52.135Z,8.30
2018-04-18T00:56:20.436Z,8.30
2018-04-18T00:58:47.880Z,8.40
2018-04-18T01:01:15.331Z,8.50
2018-04-18T01:03:42.808Z,8.50
2018-04-18T01:06:10.364Z,8.30
2018-04-18T01:08:37.819Z,8.20
2018-04-18T01:11:05.263Z,8.10
2018-04-18T01:13:33.100Z,8.00
2018-04-18T01:16:00.550Z,7.90
2018-04-18T01:18:28.773Z,7.70
2018-04-18T01:20:56.240Z,7.70
2018-04-18T01:23:24.122Z,7.60
2018-04-18T01:25:51.998Z,7.60
2018-04-18T01:28:19.444Z,7.60
2018-04-18T01:30:47.595Z,7.60
2018-04-18T01:33:15.755Z,7.60
2018-04-18T01:35:43.213Z,7.60
2018-04-18T01:38:11.399Z,7.50
2018-04-18T01:40:39.124Z,7.40
2018-04-18T01:43:06.577Z,7.30
2018-04-18T01:48:27.523Z,7.30
2018-04-18T01:50:55.815Z,7.20
2018-04-18T01:53:23.265Z,7.30
2018-04-18T01:55:50.719Z,7.30
2018-04-18T01:58:18.199Z,7.40
2018-04-18T02:00:46.241Z,7.50
2018-04-18T02:03:13.691Z,7.60
2018-04-18T02:05:41.716Z,7.60
2018-04-18T02:08:09.937Z,7.70
2018-04-18T02:10:37.393Z,7.70
2018-04-18T02:13:04.888Z,7.70
2018-04-18T02:15:32.439Z,7.80
2018-04-18T02:18:00.302Z,7.90
2018-04-18T02:20:27.867Z,8.10
2018-04-18T02:22:55.435Z,8.30
2018-04-18T02:25:22.888Z,8.50
2018-04-18T02:27:50.335Z,8.80
2018-04-18T02:30:17.790Z,8.90
2018-04-18T02:32:45.262Z,9.00
2018-04-18T02:35:14.217Z,8.90
2018-04-18T02:37:42.204Z,8.80
2018-04-18T02:40:09.685Z,8.90
2018-04-18T02:42:37.233Z,8.80
2018-04-18T02:45:04.705Z,8.70
2018-04-18T02:47:32.153Z,8.60
2018-04-18T02:49:59.613Z,8.50
2018-04-18T02:52:27.165Z,8.40
2018-04-18T02:54:54.613Z,8.30
2018-04-18T02:57:22.175Z,8.20
2018-04-18T02:59:49.635Z,8.00
2018-04-18T03:02:17.090Z,8.00
2018-04-18T03:04:44.554Z,7.80
2018-04-18T03:07:12.419Z,7.70
2018-04-18T03:09:39.863Z,7.60
2018-04-18T03:12:07.317Z,7.50
2018-04-18T03:14:34.767Z,7.40
2018-04-18T03:17:02.224Z,7.30
2018-04-18T03:19:30.139Z,7.20
2018-04-18T03:21:58.384Z,7.00
2018-04-18T03:24:26.296Z,7.00
2018-04-18T03:26:53.811Z,6.90
2018-04-18T03:29:21.260Z,6.90
2018-04-18T03:31:48.732Z,6.80
2018-04-18T03:34:16.176Z,6.70
2018-04-18T03:36:43.736Z,6.60
2018-04-18T03:39:11.197Z,6.60
2018-04-18T03:41:38.772Z,6.50
2018-04-18T03:44:06.959Z,6.50
2018-04-18T03:46:35.194Z,6.40
2018-04-18T03:49:02.651Z,6.40
2018-04-18T03:51:30.641Z,6.30
2018-04-18T03:53:58.196Z,6.30
2018-04-18T03:56:25.752Z,6.30
2018-04-18T03:58:53.211Z,6.30
2018-04-18T04:01:22.192Z,6.20
2018-04-18T04:03:49.756Z,6.20
2018-04-18T04:06:17.768Z,6.30
2018-04-18T04:08:46.001Z,6.30
2018-04-18T04:11:13.636Z,6.30
2018-04-18T04:13:41.084Z,6.20
2018-04-18T04:16:20.624Z,6.20
2018-04-18T04:19:00.249Z,6.10
2018-04-18T04:21:40.929Z,6.20
2018-04-18T04:24:20.498Z,6.20
2018-04-18T04:26:47.971Z,6.50
2018-04-18T04:29:15.636Z,6.80
2018-04-18T04:31:43.296Z,7.20
2018-04-18T04:34:12.277Z,7.40
2018-04-18T04:36:39.745Z,7.40
2018-04-18T04:39:07.203Z,7.50
2018-04-18T04:41:34.666Z,7.60
2018-04-18T04:44:02.120Z,7.60
2018-04-18T04:46:29.578Z,7.60
2018-04-18T04:48:57.849Z,7.60
2018-04-18T04:51:25.395Z,7.50
2018-04-18T04:53:52.863Z,7.50
2018-04-18T04:56:20.419Z,7.50
2018-04-18T04:58:47.882Z,7.60
2018-04-18T05:01:15.438Z,7.70
2018-04-18T05:03:42.900Z,8.00
2018-04-18T05:06:10.356Z,8.20
2018-04-18T05:08:37.821Z,8.30
2018-04-18T05:11:05.269Z,8.40
2018-04-18T05:13:33.607Z,8.50
2018-04-18T05:16:01.104Z,8.50
2018-04-18T05:18:28.559Z,8.50
2018-04-18T05:20:56.111Z,8.60
2018-04-18T05:23:24.664Z,8.70
2018-04-18T05:25:54.605Z,8.80
2018-04-18T05:28:22.063Z,8.90
2018-04-18T05:30:49.512Z,9.10
2018-04-18T05:33:16.973Z,9.20
2018-04-18T05:35:45.264Z,9.30
2018-04-18T05:38:12.724Z,9.40
2018-04-18T05:40:40.648Z,9.60
2018-04-18T05:43:09.127Z,9.80
2018-04-18T05:45:36.827Z,9.90
2018-04-18T05:48:04.900Z,9.90
2018-04-18T05:50:33.187Z,10.10
2018-04-18T05:53:02.161Z,10.50
2018-04-18T05:55:29.872Z,10.50
2018-04-18T05:57:58.087Z,10.70
2018-04-18T06:00:25.579Z,10.70
2018-04-18T06:02:53.047Z,10.90
2018-04-18T06:05:21.262Z,12.20
2018-04-18T06:07:48.721Z,12.20
2018-04-18T06:10:16.208Z,13.20
2018-04-18T06:12:43.666Z,14.10
2018-04-18T06:15:11.560Z,14.80
2018-04-18T06:17:39.913Z,16.50
2018-04-18T06:20:07.388Z,16.50
2018-04-18T06:22:34.835Z,16.90
2018-04-18T06:25:04.131Z,17.40
2018-04-18T06:27:31.576Z,17.80
2018-04-18T06:29:59.155Z,18.10
2018-04-18T06:32:27.724Z,18.10
2018-04-18T06:34:55.277Z,18.20
2018-04-18T06:37:22.737Z,18.50
2018-04-18T06:39:50.309Z,19.00
2018-04-18T06:42:17.747Z,19.00
2018-04-18T06:44:46.428Z,19.10
2018-04-18T06:47:13.896Z,19.30
2018-04-18T06:49:41.792Z,19.20
2018-04-18T06:52:10.016Z,19.80
2018-04-18T06:54:39.143Z,19.80
2018-04-18T06:57:06.811Z,20.50
2018-04-18T06:59:35.044Z,21.60
2018-04-18T07:02:03.313Z,21.50
2018-04-18T07:04:30.768Z,21.40
2018-04-18T07:06:58.229Z,21.10
2018-04-18T07:09:26.505Z,21.00
2018-04-18T07:11:54.001Z,20.70
2018-04-18T07:14:21.896Z,20.80
2018-04-18T07:16:50.143Z,21.90
2018-04-18T07:19:18.830Z,22.00
2018-04-18T07:21:47.492Z,22.00
2018-04-18T07:24:14.978Z,22.00
2018-04-18T07:26:42.435Z,21.90
2018-04-18T07:29:10.347Z,22.10
2018-04-18T07:31:37.916Z,22.10
2018-04-18T07:34:05.407Z,22.50
2018-04-18T07:36:32.874Z,22.60
2018-04-18T07:39:00.429Z,22.90
2018-04-18T07:41:28.428Z,23.00
2018-04-18T07:43:57.267Z,23.20
2018-04-18T07:46:25.366Z,23.20
2018-04-18T07:48:52.913Z,23.50
2018-04-18T07:51:20.375Z,23.90
2018-04-18T07:53:47.829Z,24.40
2018-04-18T07:56:15.289Z,24.00
2018-04-18T07:58:42.740Z,23.60
2018-04-18T08:01:10.572Z,23.70
2018-04-18T08:03:38.029Z,24.00
2018-04-18T08:06:05.489Z,24.10
2018-04-18T08:08:32.949Z,23.70
2018-04-18T08:11:00.399Z,23.70
2018-04-18T08:13:27.865Z,24.30
2018-04-18T08:15:55.359Z,24.50
2018-04-18T08:18:24.316Z,24.20
2018-04-18T08:20:51.767Z,24.20
2018-04-18T08:23:19.219Z,24.10
2018-04-18T08:25:49.296Z,23.70
2018-04-18T08:28:17.540Z,23.00
2018-04-18T08:30:45.100Z,23.00
2018-04-18T08:33:13.092Z,23.20
2018-04-18T08:35:40.543Z,23.30
2018-04-18T08:38:07.994Z,23.70
2018-04-18T08:40:37.241Z,24.10
2018-04-18T08:43:04.689Z,24.00
2018-04-18T08:45:33.477Z,24.60
2018-04-18T08:48:01.385Z,25.10
2018-04-18T08:50:28.839Z,25.10
2018-04-18T08:52:56.296Z,25.60
2018-04-18T08:55:23.888Z,25.80
2018-04-18T08:57:51.434Z,25.40
2018-04-18T09:00:18.891Z,25.50
2018-04-18T09:02:46.527Z,25.60
2018-04-18T09:05:14.011Z,25.10
2018-04-18T09:07:41.563Z,25.30
2018-04-18T09:10:09.136Z,25.90
2018-04-18T09:12:37.784Z,27.10
2018-04-18T09:15:05.672Z,27.00
2018-04-18T09:17:33.136Z,27.10
2018-04-18T09:20:00.584Z,26.70
2018-04-18T09:22:28.463Z,26.60
2018-04-18T09:24:56.022Z,27.10
2018-04-18T09:27:23.571Z,27.80
2018-04-18T09:29:51.024Z,27.90
2018-04-18T09:32:19.641Z,27.70
2018-04-18T09:34:47.307Z,27.80
2018-04-18T09:37:15.529Z,28.70
2018-04-18T09:39:43.009Z,28.60
2018-04-18T09:42:10.463Z,28.20
2018-04-18T09:44:37.916Z,28.70
2018-04-18T09:47:06.191Z,29.20
2018-04-18T09:49:33.647Z,29.70
2018-04-18T09:52:01.115Z,29.60
2018-04-18T09:54:30.103Z,30.80
2018-04-18T09:56:57.724Z,30.80
2018-04-18T09:59:25.179Z,30.60
2018-04-18T10:01:53.044Z,29.90
2018-04-18T10:04:28.105Z,29.80
2018-04-18T10:06:55.549Z,29.80
2018-04-18T10:09:23.148Z,30.20
2018-04-18T10:11:50.605Z,30.60
2018-04-18T10:14:20.099Z,31.70
2018-04-18T10:16:47.556Z,31.70
2018-04-18T10:19:15.007Z,31.50
2018-04-18T10:21:42.624Z,31.20
2018-04-18T10:24:10.072Z,31.00
2018-04-18T10:26:38.299Z,30.60
2018-04-18T10:29:05.763Z,30.50
2018-04-18T10:31:33.603Z,30.30
2018-04-18T10:34:01.300Z,29.80
2018-04-18T10:36:30.128Z,31.10
2018-04-18T10:38:58.360Z,31.20
2018-04-18T10:41:26.741Z,31.20
2018-04-18T10:43:54.196Z,30.80
2018-04-18T10:46:21.640Z,29.90
2018-04-18T10:48:49.264Z,29.30
2018-04-18T10:51:16.719Z,29.00
2018-04-18T10:53:44.180Z,28.60
2018-04-18T10:56:11.641Z,28.90
2018-04-18T10:58:39.153Z,28.50
2018-04-18T11:01:06.603Z,28.10
2018-04-18T11:03:34.055Z,27.90
2018-04-18T11:06:01.508Z,28.10
2018-04-18T11:08:28.960Z,27.80
2018-04-18T11:10:56.584Z,27.80
2018-04-18T11:13:24.590Z,27.70
2018-04-18T11:15:52.060Z,28.00
2018-04-18T11:18:19.509Z,28.30
2018-04-18T11:20:47.545Z,28.20
2018-04-18T11:23:15.617Z,28.40
2018-04-18T11:25:43.075Z,28.40
2018-04-18T11:28:10.527Z,28.30
2018-04-18T11:30:38.609Z,27.90
2018-04-18T11:33:06.097Z,27.60
2018-04-18T11:35:34.266Z,27.50
2018-04-18T11:38:01.827Z,27.70
2018-04-18T11:40:29.279Z,27.90
2018-04-18T11:42:56.736Z,27.60
2018-04-18T11:45:24.218Z,27.50
2018-04-18T11:47:51.659Z,27.40
2018-04-18T11:50:19.124Z,27.50
2018-04-18T11:52:47.295Z,28.10
2018-04-18T11:55:16.272Z,29.00
2018-04-18T11:57:43.723Z,29.00
2018-04-18T12:00:11.298Z,29.50
2018-04-18T12:02:38.765Z,29.80
2018-04-18T12:05:06.973Z,29.20
2018-04-18T12:07:35.207Z,28.90
2018-04-18T12:10:02.665Z,28.90
2018-04-18T12:12:30.144Z,28.70
2018-04-18T12:14:57.880Z,28.30
2018-04-18T12:17:25.319Z,28.20
2018-04-18T12:19:52.775Z,27.90
2018-04-18T12:22:21.045Z,28.40
2018-04-18T12:24:48.501Z,28.90
2018-04-18T12:27:15.961Z,29.40
2018-04-18T12:29:43.445Z,29.70
2018-04-18T12:32:11.010Z,29.50
2018-04-18T12:34:38.568Z,28.80
2018-04-18T12:37:06.729Z,28.50
2018-04-18T12:39:34.921Z,28.30
2018-04-18T12:42:02.376Z,27.80
2018-04-18T12:44:29.827Z,27.80
2018-04-18T12:46:57.320Z,27.90
2018-04-18T12:49:25.532Z,27.60
2018-04-18T12:51:53.028Z,27.60
2018-04-18T12:54:20.476Z,27.80
2018-04-18T12:56:48.040Z,27.90
2018-04-18T12:59:15.492Z,28.20
2018-04-18T13:01:43.568Z,28.50
2018-04-18T13:04:11.115Z,28.60
2018-04-18T13:06:38.580Z,28.80
2018-04-18T13:09:06.236Z,28.80
2018-04-18T13:11:33.688Z,28.50
2018-04-18T13:14:01.157Z,28.10
2018-04-18T13:16:28.620Z,27.70
2018-04-18T13:18:56.510Z,28.00
2018-04-18T13:21:25.055Z,29.10
2018-04-18T13:23:53.106Z,29.10
2018-04-18T13:26:20.559Z,29.00
2018-04-18T13:28:48.056Z,29.20
2018-04-18T13:31:15.496Z,29.70
2018-04-18T13:33:42.957Z,29.80
2018-04-18T13:36:11.584Z,29.90
2018-04-18T13:38:40.334Z,29.20
2018-04-18T13:41:07.792Z,29.20
2018-04-18T13:43:35.705Z,29.10
2018-04-18T13:46:03.220Z,29.00
2018-04-18T13:48:31.660Z,28.60
2018-04-18T13:50:59.123Z,28.70
2018-04-18T13:53:26.568Z,28.50
2018-04-18T13:55:54.040Z,28.50
2018-04-18T13:58:22.168Z,28.70
2018-04-18T14:00:50.385Z,29.40
2018-04-18T14:03:17.848Z,29.40
2018-04-18T14:05:46.071Z,29.80
2018-04-18T14:08:14.292Z,30.30
2018-04-18T14:10:44.198Z,30.20
2018-04-18T14:13:11.663Z,29.90
2018-04-18T14:15:39.157Z,29.80
2018-04-18T14:18:06.703Z,30.20
2018-04-18T14:20:34.160Z,30.80
2018-04-18T14:23:01.616Z,31.20
2018-04-18T14:25:29.096Z,31.50
2018-04-18T14:27:57.307Z,31.30
2018-04-18T14:30:25.116Z,31.20
2018-04-18T14:32:52.571Z,31.90
2018-04-18T14:35:20.026Z,32.20
2018-04-18T14:37:47.641Z,31.60
2018-04-18T14:40:15.488Z,31.30
2018-04-18T14:42:45.997Z,30.70
2018-04-18T14:45:14.991Z,30.70
2018-04-18T14:47:42.471Z,30.60
2018-04-18T14:50:10.724Z,30.90
2018-04-18T14:52:38.583Z,30.80
2018-04-18T14:55:06.555Z,31.30
2018-04-18T14:57:34.013Z,31.40
2018-04-18T15:00:01.568Z,31.30
2018-04-18T15:02:29.448Z,31.70
2018-04-18T15:04:57.713Z,30.10
2018-04-18T15:07:27.727Z,30.10
2018-04-18T15:09:55.183Z,30.00
2018-04-18T15:12:23.184Z,30.40
2018-04-18T15:14:52.517Z,31.30
2018-04-18T15:17:19.980Z,31.20
2018-04-18T15:19:47.431Z,31.20
2018-04-18T15:22:14.909Z,31.50
2018-04-18T15:24:42.359Z,31.60
2018-04-18T15:27:10.245Z,31.50
2018-04-18T15:29:38.315Z,31.90
2018-04-18T15:32:07.280Z,32.10
2018-04-18T15:34:35.258Z,32.20
2018-04-18T15:37:02.704Z,32.50
2018-04-18T15:39:30.661Z,32.20
2018-04-18T15:41:58.897Z,32.30
2018-04-18T15:44:26.357Z,31.40
2018-04-18T15:46:55.340Z,30.00
2018-04-18T15:49:23.306Z,30.00
2018-04-18T15:51:51.067Z,29.70
2018-04-18T15:54:18.530Z,29.80
2018-04-18T15:56:46.141Z,30.30
2018-04-18T15:59:13.612Z,30.80
2018-04-18T16:01:41.359Z,30.60
2018-04-18T16:04:08.833Z,30.60
2018-04-18T16:06:36.287Z,30.30
2018-04-18T16:09:04.285Z,30.60
2018-04-18T16:11:31.846Z,30.70
2018-04-18T16:13:59.290Z,30.50
2018-04-18T16:16:27.072Z,30.80
2018-04-18T16:18:54.747Z,30.60
2018-04-18T16:21:22.972Z,30.00
2018-04-18T16:23:50.431Z,30.00
2018-04-18T16:26:17.884Z,29.90
2018-04-18T16:28:45.387Z,30.00
2018-04-18T16:31:12.932Z,30.10
2018-04-18T16:33:40.401Z,30.00
2018-04-18T16:36:07.869Z,30.00
2018-04-18T16:38:35.413Z,29.70
2018-04-18T16:41:03.635Z,29.70
2018-04-18T16:43:31.087Z,29.60
2018-04-18T16:45:59.315Z,29.30
2018-04-18T16:48:26.800Z,29.30
2018-04-18T16:50:54.213Z,29.20
2018-04-18T16:53:21.664Z,28.80
2018-04-18T16:55:50.442Z,28.70
2018-04-18T16:58:17.880Z,28.30
2018-04-18T17:00:46.337Z,27.90
2018-04-18T17:03:14.891Z,27.40
2018-04-18T17:05:42.451Z,27.40
2018-04-18T17:08:09.920Z,27.20
2018-04-18T17:10:38.983Z,27.00
2018-04-18T17:13:06.572Z,27.00
2018-04-18T17:15:34.122Z,27.20
2018-04-18T17:18:01.589Z,27.40
2018-04-18T17:20:29.359Z,27.60
2018-04-18T17:22:56.812Z,27.60
2018-04-18T17:25:24.268Z,27.60
2018-04-18T17:27:51.785Z,27.10
2018-04-18T17:30:19.316Z,26.80
2018-04-18T17:32:48.782Z,26.20
2018-04-18T17:35:16.332Z,26.20
2018-04-18T17:37:43.995Z,26.00
2018-04-18T17:40:11.465Z,25.50
2018-04-18T17:42:39.516Z,24.80
2018-04-18T17:45:07.570Z,24.20
2018-04-18T17:47:35.524Z,23.60
2018-04-18T17:50:02.964Z,23.20
2018-04-18T17:52:31.183Z,22.50
2018-04-18T17:54:59.349Z,22.50
2018-04-18T17:57:26.835Z,22.30
2018-04-18T17:59:54.293Z,22.10
2018-04-18T18:02:21.749Z,21.90
2018-04-18T18:04:49.187Z,21.70
2018-04-18T18:07:17.204Z,21.40
2018-04-18T18:09:45.453Z,20.90
2018-04-18T18:12:12.900Z,20.90
2018-04-18T18:14:40.624Z,20.70
2018-04-18T18:17:08.127Z,20.50
2018-04-18T18:19:35.623Z,20.30
2018-04-18T18:22:03.044Z,20.20
2018-04-18T18:24:31.158Z,20.00
2018-04-18T18:27:00.263Z,19.70
2018-04-18T18:29:29.892Z,19.60
2018-04-18T18:31:57.350Z,19.50
2018-04-18T18:34:25.005Z,19.30
2018-04-18T18:36:52.478Z,19.10
2018-04-18T18:39:19.919Z,19.00
2018-04-18T18:41:47.372Z,18.90
2018-04-18T18:44:14.829Z,18.80
2018-04-18T18:46:42.281Z,18.70
2018-04-18T18:49:09.744Z,18.60
2018-04-18T18:51:37.222Z,18.50
2018-04-18T18:54:04.772Z,18.40
2018-04-18T18:56:32.474Z,18.30
2018-04-18T18:58:59.938Z,18.20
2018-04-18T19:01:27.814Z,18.10
2018-04-18T19:03:56.314Z,17.90
2018-04-18T19:06:25.120Z,17.80
2018-04-18T19:08:52.624Z,17.80
2018-04-18T19:11:20.065Z,17.70
2018-04-18T19:13:48.639Z,17.60
2018-04-18T19:16:16.088Z,17.50
2018-04-18T19:18:43.612Z,17.50
2018-04-18T19:21:11.129Z,17.50
2018-04-18T19:23:38.586Z,17.50
2018-04-18T19:26:06.040Z,17.50
2018-04-18T19:28:33.647Z,17.40
2018-04-18T19:31:01.804Z,17.40
2018-04-18T19:33:30.016Z,17.40
2018-04-18T19:35:59.370Z,17.40
2018-04-18T19:38:26.831Z,17.40
2018-04-18T19:40:56.209Z,17.00
2018-04-18T19:43:24.208Z,17.00
2018-04-18T19:45:52.424Z,16.80
2018-04-18T19:48:20.364Z,16.70
2018-04-18T19:50:48.583Z,16.40
2018-04-18T19:53:16.519Z,16.40
2018-04-18T19:55:43.964Z,16.20
2018-04-18T19:58:12.716Z,15.70
2018-04-18T20:00:40.172Z,15.70
2018-04-18T20:03:07.995Z,15.50
2018-04-18T20:05:35.439Z,15.20
2018-04-18T20:08:02.903Z,15.00
2018-04-18T20:10:30.356Z,14.80
2018-04-18T20:12:59.184Z,14.70
2018-04-18T20:15:28.948Z,14.50
2018-04-18T20:17:57.156Z,14.30
2018-04-18T20:20:25.520Z,14.30
2018-04-18T20:22:53.014Z,14.10
2018-04-18T20:25:20.677Z,14.10
2018-04-18T20:27:48.136Z,14.00
2018-04-18T20:30:16.140Z,14.00
2018-04-18T20:32:44.640Z,14.00
2018-04-18T20:35:12.138Z,14.00
2018-04-18T20:37:39.695Z,14.00
2018-04-18T20:40:07.696Z,14.00
2018-04-18T20:42:35.948Z,14.00
2018-04-18T20:45:03.859Z,14.00
2018-04-18T20:47:31.472Z,14.00
2018-04-18T20:49:58.916Z,13.90
2018-04-18T20:52:26.400Z,14.00
2018-04-18T20:54:53.860Z,13.90
2018-04-18T20:57:21.381Z,14.00
2018-04-18T20:59:51.566Z,14.00
2018-04-18T21:02:20.088Z,13.90
2018-04-18T21:04:47.563Z,13.90
2018-04-18T21:07:15.016Z,13.80
2018-04-18T21:09:42.476Z,13.80
2018-04-18T21:12:09.932Z,13.80
2018-04-18T21:14:37.393Z,13.80
2018-04-18T21:17:04.840Z,13.70
2018-04-18T21:19:32.840Z,13.70
2018-04-18T21:22:00.295Z,13.60
2018-04-18T21:24:28.178Z,13.60
2018-04-18T21:26:56.832Z,13.60
2018-04-18T21:29:24.595Z,13.60
2018-04-18T21:31:52.051Z,13.60
2018-04-18T21:34:19.495Z,13.50
2018-04-18T21:36:47.364Z,13.40
2018-04-18T21:39:15.391Z,13.30
2018-04-18T21:41:42.849Z,13.10
2018-04-18T21:44:13.065Z,12.90
2018-04-18T21:46:42.799Z,12.80
2018-04-18T21:49:10.276Z,12.60
2018-04-18T21:51:38.499Z,12.50
2018-04-18T21:54:06.925Z,12.50
2018-04-18T21:56:34.928Z,12.50
2018-04-18T21:59:02.387Z,12.60
2018-04-18T22:01:29.832Z,12.70
2018-04-18T22:03:58.034Z,12.70
2018-04-18T22:06:26.251Z,13.00
2018-04-18T22:08:53.704Z,12.90
2018-04-18T22:11:21.172Z,13.10
2018-04-18T22:13:48.625Z,13.30
2018-04-18T22:16:16.069Z,13.40
2018-04-18T22:18:43.530Z,13.40
2018-04-18T22:21:10.977Z,13.40
2018-04-18T22:23:38.962Z,13.30
2018-04-18T22:26:07.276Z,13.30
2018-04-18T22:28:35.039Z,13.10
2018-04-18T22:31:03.623Z,12.90
2018-04-18T22:33:31.949Z,12.70
2018-04-18T22:35:59.965Z,12.60
2018-04-18T22:38:28.490Z,12.50
2018-04-18T22:40:55.934Z,12.30
2018-04-18T22:43:23.451Z,12.20
2018-04-18T22:45:50.904Z,12.10
2018-04-18T22:48:18.358Z,12.00
2018-04-18T22:50:45.826Z,12.00
2018-04-18T22:53:13.285Z,11.80
2018-04-18T22:55:42.457Z,11.80
2018-04-18T22:58:09.938Z,11.70
2018-04-18T23:00:37.388Z,11.70
2018-04-18T23:03:04.846Z,11.60
2018-04-18T23:05:32.299Z,11.60
2018-04-18T23:08:00.177Z,11.60
2018-04-18T23:10:27.633Z,11.70
2018-04-18T23:12:55.080Z,11.70
2018-04-18T23:15:22.528Z,11.70
2018-04-18T23:17:50.751Z,11.80
2018-04-18T23:20:19.128Z,12.00
2018-04-18T23:22:47.095Z,12.00
2018-04-18T23:25:15.740Z,12.30
2018-04-18T23:27:43.202Z,12.30
2018-04-18T23:30:10.773Z,12.40
2018-04-18T23:32:38.768Z,12.50
2018-04-18T23:35:06.976Z,12.50
2018-04-18T23:37:36.928Z,12.50
2018-04-18T23:40:05.209Z,12.30
2018-04-18T23:42:33.236Z,12.30
2018-04-18T23:45:00.693Z,12.20
2018-04-18T23:47:28.147Z,12.10
2018-04-18T23:49:58.092Z,12.00
2018-04-18T23:52:25.561Z,11.90
2018-04-18T23:54:53.463Z,11.90
2018-04-18T23:57:22.091Z,11.80
2018-04-18T23:59:49.549Z,11.80
